Time;durP1;ratioP1;P1;durP2;ratioP2;P2;SDS_P1;SDS_P2;PMS_P1;PMS_P2;Temp;Humidity;BMP_temperature;BMP_pressure;BME280_temperature;BME280_humidity;BME280_pressure;Samples;Min_cycle;Max_cycle;Signal;HPM_P1;HPM_P2
2021/11/04 00:00:09;;;;;;;1.92;1.83;;;10.00;76.40;;;;;;5002749;28;20035;-79
2021/11/04 00:02:39;;;;;;;2.00;1.80;;;10.00;76.50;;;;;;4987950;28;20030;-79
2021/11/04 00:05:06;;;;;;;2.20;2.00;;;10.00;76.40;;;;;;4987657;28;20030;-78
2021/11/04 00:07:32;;;;;;;2.50;2.30;;;10.00;76.50;;;;;;4987443;28;20053;-79
2021/11/04 00:09:58;;;;;;;3.45;2.13;;;10.00;76.50;;;;;;4987453;28;20513;-79
2021/11/04 00:12:24;;;;;;;2.50;1.88;;;10.00;76.50;;;;;;4986448;28;20049;-79
2021/11/04 00:14:50;;;;;;;2.20;2.00;;;10.00;76.50;;;;;;4987447;28;20030;-79
2021/11/04 00:17:17;;;;;;;2.70;2.17;;;10.00;76.50;;;;;;4988074;28;20034;-79
2021/11/04 00:19:44;;;;;;;2.30;2.00;;;10.00;76.50;;;;;;4987623;28;20469;-79
2021/11/04 00:22:10;;;;;;;2.30;2.10;;;9.90;76.40;;;;;;4987767;28;20036;-79
2021/11/04 00:24:37;;;;;;;2.58;2.17;;;9.90;76.40;;;;;;4987526;28;20037;-79
2021/11/04 00:27:03;;;;;;;2.38;2.17;;;9.90;76.50;;;;;;4987484;28;20057;-79
2021/11/04 00:29:29;;;;;;;4.10;2.38;;;9.90;76.50;;;;;;4998273;28;20400;-78
2021/11/04 00:31:56;;;;;;;2.58;2.20;;;9.90;76.50;;;;;;5007354;28;20447;-78
2021/11/04 00:34:23;;;;;;;2.25;2.05;;;9.90;76.60;;;;;;4991782;28;20033;-79
2021/11/04 00:36:49;;;;;;;3.00;2.63;;;9.90;76.60;;;;;;4987774;28;20486;-78
2021/11/04 00:39:15;;;;;;;2.75;2.10;;;9.90;76.70;;;;;;4997467;28;20034;-78
2021/11/04 00:41:41;;;;;;;2.58;2.13;;;9.90;76.70;;;;;;5006138;28;20033;-78
2021/11/04 00:44:08;;;;;;;2.65;2.45;;;9.90;76.70;;;;;;5006890;28;20112;-77
2021/11/04 00:46:34;;;;;;;2.60;2.40;;;9.90;76.80;;;;;;5001148;28;20045;-77
2021/11/04 00:49:00;;;;;;;2.40;2.20;;;9.90;76.80;;;;;;4987116;28;20134;-77
2021/11/04 00:51:27;;;;;;;2.78;2.40;;;9.90;76.80;;;;;;4987565;28;20048;-78
2021/11/04 00:53:53;;;;;;;2.20;2.00;;;9.90;76.80;;;;;;4986795;28;20046;-77
2021/11/04 00:56:19;;;;;;;3.40;2.58;;;9.90;76.80;;;;;;4985798;28;20138;-77
2021/11/04 00:58:49;;;;;;;2.40;2.20;;;9.90;76.80;;;;;;4985930;28;20555;-77
2021/11/04 01:01:20;;;;;;;2.55;2.30;;;9.80;76.60;;;;;;4985639;28;20032;-78
2021/11/04 01:03:47;;;;;;;2.30;2.10;;;9.90;76.80;;;;;;4986640;28;20034;-78
2021/11/04 01:06:13;;;;;;;2.17;1.98;;;9.90;76.80;;;;;;4987062;28;20367;-78
2021/11/04 01:08:39;;;;;;;2.13;1.92;;;9.90;76.80;;;;;;4986475;28;20130;-77
2021/11/04 01:11:07;;;;;;;2.60;2.40;;;9.90;76.90;;;;;;4986552;28;20460;-77
2021/11/04 01:13:33;;;;;;;2.63;2.42;;;9.90;76.80;;;;;;4986658;28;20034;-77
2021/11/04 01:15:59;;;;;;;2.53;2.30;;;9.90;76.90;;;;;;4987061;28;20081;-77
2021/11/04 01:18:25;;;;;;;2.80;2.50;;;9.90;76.90;;;;;;4986564;28;20491;-77
2021/11/04 01:20:53;;;;;;;3.03;2.47;;;9.90;76.90;;;;;;4987086;28;20038;-76
2021/11/04 01:23:19;;;;;;;3.60;2.40;;;9.90;76.90;;;;;;4986229;28;20372;-77
2021/11/04 01:25:45;;;;;;;2.95;2.67;;;9.90;76.90;;;;;;4986556;28;20509;-77
2021/11/04 01:28:11;;;;;;;2.53;2.33;;;9.90;76.90;;;;;;4988073;28;20057;-77
2021/11/04 01:30:40;;;;;;;2.80;2.60;;;9.90;76.90;;;;;;5005221;28;20034;-75
2021/11/04 01:33:06;;;;;;;3.55;2.30;;;9.90;76.90;;;;;;5002425;28;20034;-77
2021/11/04 01:35:32;;;;;;;2.63;2.42;;;9.80;76.80;;;;;;4984976;28;20497;-76
2021/11/04 01:38:01;;;;;;;2.60;2.40;;;9.80;76.70;;;;;;4986732;28;20030;-76
2021/11/04 01:40:27;;;;;;;3.45;2.15;;;9.80;76.70;;;;;;4986567;28;20062;-76
2021/11/04 01:42:53;;;;;;;3.00;2.13;;;9.90;76.90;;;;;;4990116;28;20037;-76
2021/11/04 01:45:20;;;;;;;3.42;2.00;;;9.80;76.70;;;;;;4989415;28;20371;-76
2021/11/04 01:47:46;;;;;;;2.40;2.03;;;9.80;76.70;;;;;;4989431;28;20085;-76
2021/11/04 01:50:17;;;;;;;2.58;2.08;;;9.80;76.70;;;;;;5007523;28;20050;-76
2021/11/04 01:52:44;;;;;;;2.63;2.05;;;9.80;76.70;;;;;;5025950;28;20061;-76
2021/11/04 01:55:22;;;;;;;2.45;2.25;;;9.80;76.70;;;;;;4992863;28;20030;-76
2021/11/04 01:57:48;;;;;;;2.35;2.15;;;9.70;76.50;;;;;;4992301;28;20100;-77
2021/11/04 02:00:18;;;;;;;2.17;1.95;;;9.70;76.50;;;;;;4990538;28;20034;-76
2021/11/04 02:02:46;;;;;;;2.17;1.98;;;9.70;76.50;;;;;;4990404;28;20038;-76
2021/11/04 02:05:18;;;;;;;2.22;1.77;;;9.70;76.50;;;;;;4990503;28;20026;-78
2021/11/04 02:08:22;;;;;;;2.55;2.00;;;9.70;76.50;;;;;;4988655;28;20462;-78
2021/11/04 02:10:54;;;;;;;2.25;2.05;;;9.70;76.60;;;;;;4982210;28;20030;-77
2021/11/04 02:14:09;;;;;;;2.45;2.33;;;9.70;76.60;;;;;;4995695;28;20046;-77
2021/11/04 02:16:36;;;;;;;2.38;2.17;;;9.60;76.40;;;;;;4993440;28;20124;-78
2021/11/04 02:19:17;;;;;;;3.75;2.13;;;9.60;76.40;;;;;;4989589;28;20046;-78
2021/11/04 02:21:58;;;;;;;2.22;1.85;;;9.50;76.30;;;;;;4989289;28;20045;-78
2021/11/04 02:24:37;;;;;;;1.92;1.83;;;9.50;76.30;;;;;;4989482;28;20034;-79
2021/11/04 02:27:06;;;;;;;1.77;1.63;;;9.50;76.30;;;;;;4988831;28;20037;-78
2021/11/04 02:29:34;;;;;;;2.78;2.10;;;9.50;76.40;;;;;;5004566;28;20093;-78
2021/11/04 02:32:00;;;;;;;2.47;2.20;;;9.50;76.30;;;;;;4990603;28;20320;-78
2021/11/04 02:34:28;;;;;;;2.22;2.03;;;9.50;76.40;;;;;;5008766;28;20108;-79
2021/11/04 02:36:56;;;;;;;2.00;1.85;;;9.50;76.40;;;;;;5010923;28;20079;-79
2021/11/04 02:39:24;;;;;;;2.00;1.80;;;9.50;76.40;;;;;;5009169;28;20477;-79
2021/11/04 02:41:51;;;;;;;2.08;1.83;;;9.50;76.40;;;;;;5010397;28;20034;-78
2021/11/04 02:44:16;;;;;;;2.00;1.80;;;9.50;76.40;;;;;;5010447;28;20494;-79
2021/11/04 02:46:43;;;;;;;1.95;1.70;;;9.40;76.30;;;;;;4998637;28;20054;-79
2021/11/04 02:49:09;;;;;;;3.15;1.65;;;9.40;76.30;;;;;;4994045;28;20065;-79
2021/11/04 02:51:39;;;;;;;1.77;1.67;;;9.40;76.30;;;;;;4973224;28;20177;-79
2021/11/04 02:54:09;;;;;;;2.00;1.60;;;9.40;76.30;;;;;;5005370;28;20060;-79
2021/11/04 02:56:42;;;;;;;1.67;1.27;;;9.40;76.40;;;;;;4974949;28;20027;-79
2021/11/04 02:59:11;;;;;;;1.48;1.33;;;9.40;76.40;;;;;;4973886;28;20042;-79
2021/11/04 03:01:40;;;;;;;1.80;1.55;;;9.40;76.40;;;;;;4973264;28;20517;-79
2021/11/04 03:04:06;;;;;;;1.83;1.50;;;9.30;76.20;;;;;;4974621;28;20031;-79
2021/11/04 03:06:32;;;;;;;1.55;1.45;;;9.30;76.20;;;;;;4974396;28;20084;-80
2021/11/04 03:08:58;;;;;;;2.05;1.50;;;9.30;76.20;;;;;;4974196;28;20035;-80
2021/11/04 03:11:24;;;;;;;1.73;1.40;;;9.30;76.30;;;;;;4973039;28;20463;-79
2021/11/04 03:13:50;;;;;;;1.70;1.52;;;9.20;76.10;;;;;;4974043;28;20069;-78
2021/11/04 03:16:20;;;;;;;1.58;1.23;;;9.30;76.30;;;;;;4992315;28;20030;-78
2021/11/04 03:18:46;;;;;;;1.15;1.05;;;9.20;76.10;;;;;;4993705;28;20383;-78
2021/11/04 03:21:14;;;;;;;1.55;1.45;;;9.20;76.30;;;;;;4992306;28;20038;-79
2021/11/04 03:23:40;;;;;;;1.25;1.15;;;9.20;76.10;;;;;;4993585;28;20030;-79
2021/11/04 03:26:07;;;;;;;1.85;1.67;;;9.20;76.20;;;;;;4991824;28;20033;-78
2021/11/04 03:28:33;;;;;;;1.90;1.58;;;9.20;76.20;;;;;;5008529;28;20050;-79
2021/11/04 03:31:00;;;;;;;1.65;1.30;;;9.20;76.10;;;;;;4993495;28;20366;-78
2021/11/04 03:33:28;;;;;;;1.48;1.38;;;9.10;76.00;;;;;;5008227;28;20133;-78
2021/11/04 03:35:56;;;;;;;1.65;1.50;;;9.10;76.00;;;;;;4993190;28;20030;-77
2021/11/04 03:38:23;;;;;;;1.45;1.35;;;9.10;76.00;;;;;;4991838;28;20129;-78
2021/11/04 03:40:49;;;;;;;1.35;1.02;;;9.10;76.00;;;;;;4992863;28;20544;-78
2021/11/04 03:43:16;;;;;;;1.65;1.10;;;9.10;76.00;;;;;;4992561;28;20030;-78
2021/11/04 03:45:44;;;;;;;1.40;1.10;;;9.00;75.80;;;;;;4993094;28;20493;-77
2021/11/04 03:48:11;;;;;;;1.50;1.35;;;9.00;75.80;;;;;;4992794;28;20129;-77
2021/11/04 03:50:38;;;;;;;1.20;1.10;;;8.90;75.60;;;;;;4992660;28;20058;-78
2021/11/04 03:53:05;;;;;;;1.13;1.13;;;8.90;75.60;;;;;;4992996;28;20045;-79
2021/11/04 03:55:32;;;;;;;1.40;1.30;;;8.90;75.60;;;;;;5007973;28;20038;-78
2021/11/04 03:57:59;;;;;;;1.05;0.95;;;8.80;75.40;;;;;;4992807;28;20077;-77
2021/11/04 04:00:26;;;;;;;1.27;0.90;;;8.80;75.40;;;;;;4992534;28;20027;-79
2021/11/04 04:02:53;;;;;;;1.58;1.30;;;8.80;75.40;;;;;;4992915;28;20327;-78
2021/11/04 04:05:30;;;;;;;2.47;1.00;;;8.70;75.30;;;;;;4991923;28;20032;-79
2021/11/04 04:07:57;;;;;;;1.20;1.10;;;8.70;75.30;;;;;;4993216;28;20034;-79
2021/11/04 04:10:25;;;;;;;1.70;1.00;;;8.60;75.10;;;;;;4991448;28;20154;-78
2021/11/04 04:12:51;;;;;;;1.10;1.00;;;8.60;75.10;;;;;;4991797;28;20141;-78
2021/11/04 04:15:18;;;;;;;1.20;1.10;;;8.60;75.10;;;;;;4992541;28;20406;-78
2021/11/04 04:17:44;;;;;;;1.17;1.00;;;8.50;75.10;;;;;;4991063;28;20034;-78
2021/11/04 04:20:10;;;;;;;1.17;1.08;;;8.50;75.10;;;;;;4992678;28;20041;-78
2021/11/04 04:22:36;;;;;;;1.13;1.02;;;8.50;75.10;;;;;;4991110;28;20089;-78
2021/11/04 04:25:03;;;;;;;1.25;1.00;;;8.50;75.10;;;;;;5007446;28;20528;-78
2021/11/04 04:27:29;;;;;;;1.00;0.90;;;8.40;75.00;;;;;;4992363;28;20037;-79
2021/11/04 04:29:55;;;;;;;1.25;1.00;;;8.40;75.00;;;;;;4992407;28;20030;-78
2021/11/04 04:32:21;;;;;;;1.33;1.23;;;8.40;75.10;;;;;;4990748;28;20502;-78
2021/11/04 04:34:47;;;;;;;0.80;0.80;;;8.40;75.10;;;;;;4992051;28;20033;-77
2021/11/04 04:37:13;;;;;;;1.35;0.90;;;8.40;75.10;;;;;;5007172;28;20031;-77
2021/11/04 04:39:39;;;;;;;0.75;0.75;;;8.40;75.20;;;;;;4992145;28;20037;-77
2021/11/04 04:42:06;;;;;;;0.70;0.70;;;8.30;75.10;;;;;;4990599;28;20061;-78
2021/11/04 04:44:33;;;;;;;1.20;1.10;;;8.30;75.10;;;;;;4991812;28;20108;-78
2021/11/04 04:46:59;;;;;;;2.03;1.30;;;8.30;75.10;;;;;;4992370;28;20026;-78
2021/11/04 04:49:26;;;;;;;1.27;1.00;;;8.30;75.10;;;;;;4991424;28;20517;-78
2021/11/04 04:51:51;;;;;;;1.15;0.93;;;8.30;75.10;;;;;;4992103;28;20046;-78
2021/11/04 04:54:18;;;;;;;1.05;0.80;;;8.30;75.20;;;;;;4991669;28;20046;-77
2021/11/04 04:56:43;;;;;;;0.90;0.80;;;8.30;75.20;;;;;;4990466;28;20482;-77
2021/11/04 04:59:10;;;;;;;0.77;0.77;;;8.20;75.00;;;;;;4991686;28;20034;-78
2021/11/04 05:01:36;;;;;;;0.98;0.88;;;8.20;75.10;;;;;;5006788;28;20030;-77
2021/11/04 05:04:02;;;;;;;0.80;0.80;;;8.20;75.10;;;;;;4991598;28;20548;-77
2021/11/04 05:06:28;;;;;;;1.52;1.20;;;8.20;75.10;;;;;;4991853;28;20034;-77
2021/11/04 05:08:54;;;;;;;0.80;0.80;;;8.20;75.10;;;;;;4991547;28;20027;-78
2021/11/04 05:11:20;;;;;;;1.15;0.80;;;8.20;75.20;;;;;;4991277;28;20083;-78
2021/11/04 05:13:46;;;;;;;1.33;1.00;;;8.20;75.20;;;;;;4991238;28;20137;-78
2021/11/04 05:16:12;;;;;;;0.80;0.80;;;8.10;75.00;;;;;;4990002;28;20053;-78
2021/11/04 05:18:38;;;;;;;0.80;0.80;;;8.10;75.00;;;;;;4990683;28;20027;-78
2021/11/04 05:21:04;;;;;;;1.83;0.77;;;8.10;75.10;;;;;;4991780;28;20053;-78
2021/11/04 05:23:30;;;;;;;0.70;0.70;;;8.10;75.10;;;;;;4991078;28;20066;-78
2021/11/04 05:25:56;;;;;;;1.67;0.80;;;8.10;75.00;;;;;;5006825;28;20026;-78
2021/11/04 05:28:22;;;;;;;0.77;0.77;;;8.10;75.10;;;;;;4991637;28;20031;-78
2021/11/04 05:30:48;;;;;;;0.73;0.73;;;8.00;74.90;;;;;;4991559;28;20080;-78
2021/11/04 05:33:14;;;;;;;0.52;0.50;;;8.00;74.90;;;;;;4991102;28;20401;-78
2021/11/04 05:35:40;;;;;;;0.60;0.57;;;8.00;74.90;;;;;;4989926;28;20034;-78
2021/11/04 05:38:06;;;;;;;1.25;0.60;;;8.00;74.90;;;;;;4989810;28;20038;-78
2021/11/04 05:40:34;;;;;;;1.13;0.60;;;8.00;74.90;;;;;;4990002;28;20030;-79
2021/11/04 05:43:00;;;;;;;1.27;0.90;;;7.90;74.70;;;;;;4991095;28;20465;-80
2021/11/04 05:45:27;;;;;;;1.02;0.65;;;7.90;74.80;;;;;;4991563;28;20375;-78
2021/11/04 05:47:53;;;;;;;0.63;0.63;;;7.90;74.80;;;;;;4998063;28;20129;-79
2021/11/04 05:50:20;;;;;;;0.75;0.63;;;7.80;74.60;;;;;;4987936;28;20181;-79
2021/11/04 05:52:46;;;;;;;1.05;0.90;;;7.80;74.60;;;;;;4987858;28;20035;-79
2021/11/04 05:55:12;;;;;;;1.60;1.27;;;7.80;74.70;;;;;;4987147;28;20413;-79
2021/11/04 05:57:38;;;;;;;0.80;0.60;;;7.80;74.70;;;;;;4987013;28;20437;-80
2021/11/04 06:00:05;;;;;;;0.50;0.50;;;7.70;74.50;;;;;;4986056;28;20060;-80
2021/11/04 06:02:38;;;;;;;0.90;0.70;;;7.70;74.60;;;;;;4982519;28;20034;-79
2021/11/04 06:05:04;;;;;;;0.60;0.60;;;7.70;74.60;;;;;;4986630;28;20175;-80
2021/11/04 06:07:30;;;;;;;0.82;0.50;;;7.70;74.60;;;;;;4990073;28;20026;-79
2021/11/04 06:09:56;;;;;;;0.57;0.50;;;7.70;74.70;;;;;;4984924;28;20027;-81
2021/11/04 06:12:22;;;;;;;0.75;0.68;;;7.70;74.70;;;;;;4985693;28;20034;-82
2021/11/04 06:14:48;;;;;;;0.43;0.43;;;7.70;74.70;;;;;;4985609;28;20121;-80
2021/11/04 06:17:14;;;;;;;0.68;0.57;;;7.70;74.80;;;;;;4987273;28;20157;-80
2021/11/04 06:19:40;;;;;;;0.65;0.60;;;7.70;74.80;;;;;;5002590;28;20362;-78
2021/11/04 06:22:06;;;;;;;0.98;0.63;;;7.70;74.80;;;;;;4999371;28;20080;-79
2021/11/04 06:24:32;;;;;;;0.88;0.73;;;7.70;74.80;;;;;;4985109;28;20088;-81
2021/11/04 06:26:58;;;;;;;0.60;0.60;;;7.70;74.80;;;;;;4995707;28;20026;-78
2021/11/04 06:29:24;;;;;;;0.55;0.50;;;7.60;74.70;;;;;;4993595;28;20124;-78
2021/11/04 06:31:50;;;;;;;1.10;1.00;;;7.60;74.60;;;;;;4989755;28;20100;-80
2021/11/04 06:34:16;;;;;;;7.78;2.35;;;7.60;74.70;;;;;;4990500;28;20037;-84
2021/11/04 06:36:43;;;;;;;2.10;1.48;;;7.60;74.90;;;;;;5006835;28;20030;-81
2021/11/04 06:39:09;;;;;;;2.55;1.70;;;7.60;75.10;;;;;;4989392;28;20033;-81
2021/11/04 06:41:35;;;;;;;4.72;1.50;;;7.70;75.40;;;;;;4988540;28;20030;-80
2021/11/04 06:44:01;;;;;;;2.35;1.60;;;7.70;75.40;;;;;;4988227;28;20030;-82
2021/11/04 06:46:28;;;;;;;1.60;1.48;;;7.70;75.40;;;;;;4991251;28;20032;-84
2021/11/04 06:49:04;;;;;;;1.50;1.40;;;7.80;75.60;;;;;;5006495;28;20054;-81
2021/11/04 06:51:31;;;;;;;2.10;1.65;;;7.70;75.40;;;;;;4996569;28;20030;-82
2021/11/04 06:53:58;;;;;;;1.95;1.45;;;7.70;75.40;;;;;;5004900;28;20034;-81
2021/11/04 06:56:25;;;;;;;1.92;1.30;;;7.70;75.50;;;;;;5007120;28;20083;-86
2021/11/04 06:58:55;;;;;;;1.73;1.55;;;7.70;75.50;;;;;;4975188;28;20034;-81
2021/11/04 07:01:23;;;;;;;2.10;1.88;;;7.70;75.70;;;;;;4999762;28;20038;-81
2021/11/04 07:04:00;;;;;;;2.10;1.52;;;7.70;75.70;;;;;;4991721;28;20037;-82
2021/11/04 07:06:29;;;;;;;1.45;1.33;;;7.70;75.80;;;;;;4988938;28;20389;-79
2021/11/04 07:08:57;;;;;;;3.05;1.20;;;7.80;75.90;;;;;;4967570;28;20039;-83
2021/11/04 07:11:24;;;;;;;1.65;1.55;;;7.70;75.70;;;;;;4978338;28;20037;-78
2021/11/04 07:13:52;;;;;;;1.92;1.60;;;7.70;75.70;;;;;;4994118;28;20038;-87
2021/11/04 07:16:24;;;;;;;3.22;1.50;;;7.70;75.80;;;;;;4993709;28;20057;-90
2021/11/04 07:18:52;;;;;;;1.38;1.10;;;7.70;75.80;;;;;;4972704;28;20034;-87
2021/11/04 07:21:28;;;;;;;1.73;1.48;;;7.70;75.80;;;;;;4988695;28;20081;-84
2021/11/04 07:24:02;;;;;;;2.40;1.02;;;7.70;75.90;;;;;;5003854;28;20142;-84
2021/11/04 07:26:34;;;;;;;2.97;1.60;;;7.70;75.90;;;;;;5002965;28;20034;-83
2021/11/04 07:29:02;;;;;;;4.67;2.23;;;7.60;75.70;;;;;;4983249;28;20023;-85
2021/11/04 07:31:32;;;;;;;3.97;2.20;;;7.70;76.10;;;;;;4988892;28;20405;-82
2021/11/04 07:34:00;;;;;;;1.60;1.50;;;7.70;76.30;;;;;;4999968;28;20316;-87
2021/11/04 07:36:28;;;;;;;3.05;1.88;;;7.80;76.60;;;;;;5006997;28;20034;-83
2021/11/04 07:38:54;;;;;;;5.38;1.67;;;7.80;76.60;;;;;;4992849;28;20037;-83
2021/11/04 07:41:20;;;;;;;2.88;1.48;;;7.90;76.80;;;;;;4988502;28;20026;-81
2021/11/04 07:43:47;;;;;;;1.90;1.40;;;7.90;76.80;;;;;;4987929;28;20030;-83
2021/11/04 07:46:13;;;;;;;2.85;1.63;;;7.90;76.80;;;;;;4971732;28;20117;-80
2021/11/04 07:48:42;;;;;;;1.17;1.00;;;7.90;76.90;;;;;;4988156;28;20049;-85
2021/11/04 07:51:09;;;;;;;3.03;1.70;;;7.90;76.90;;;;;;4970462;28;20026;-84
2021/11/04 07:53:37;;;;;;;1.90;1.48;;;8.00;77.10;;;;;;4986193;28;20489;-85
2021/11/04 07:56:04;;;;;;;1.35;1.15;;;8.00;77.10;;;;;;5002787;28;20076;-89
2021/11/04 07:58:30;;;;;;;1.77;1.30;;;8.00;77.10;;;;;;4997789;28;20034;-91
2021/11/04 08:00:56;;;;;;;1.48;1.20;;;8.10;77.30;;;;;;5008226;28;20042;-87
2021/11/04 08:03:22;;;;;;;2.05;1.10;;;8.00;77.20;;;;;;5006798;28;20181;-89
2021/11/04 08:05:49;;;;;;;1.35;1.05;;;8.00;77.10;;;;;;5006708;28;20595;-89
2021/11/04 08:08:15;;;;;;;1.77;1.27;;;8.00;77.10;;;;;;5014650;28;20030;-85
2021/11/04 08:10:41;;;;;;;3.22;1.08;;;8.10;77.30;;;;;;5003769;28;20517;-88
2021/11/04 08:13:08;;;;;;;1.95;1.38;;;8.10;77.30;;;;;;5013506;28;20054;-86
2021/11/04 08:15:35;;;;;;;1.80;1.20;;;8.10;77.30;;;;;;5009059;28;20030;-87
2021/11/04 08:18:01;;;;;;;1.35;1.08;;;8.10;77.20;;;;;;4990920;28;20038;-83
2021/11/04 08:20:29;;;;;;;1.10;1.00;;;8.10;77.20;;;;;;4989785;28;20030;-89
2021/11/04 08:22:55;;;;;;;1.20;1.00;;;8.10;77.20;;;;;;5012044;28;20474;-88
2021/11/04 08:25:21;;;;;;;1.83;0.90;;;8.10;77.20;;;;;;5009647;28;20058;-91
2021/11/04 08:27:47;;;;;;;1.00;0.90;;;8.10;77.10;;;;;;5012202;28;20099;-90
2021/11/04 08:30:16;;;;;;;1.60;1.08;;;8.10;77.10;;;;;;5009362;28;20041;-85
2021/11/04 08:32:44;;;;;;;1.75;0.85;;;8.10;77.10;;;;;;5003608;28;20490;-93
2021/11/04 08:35:10;;;;;;;1.13;0.90;;;8.10;77.10;;;;;;4988933;28;20033;-89
2021/11/04 08:37:36;;;;;;;1.27;1.05;;;8.10;77.10;;;;;;4989125;28;20034;-87
2021/11/04 08:40:06;;;;;;;1.55;0.82;;;8.10;77.10;;;;;;4986888;28;20054;-81
2021/11/04 08:42:32;;;;;;;1.02;0.80;;;8.20;77.30;;;;;;4986580;28;20026;-80
2021/11/04 08:44:59;;;;;;;2.15;1.00;;;8.10;77.00;;;;;;5001763;28;20034;-85
2021/11/04 08:47:27;;;;;;;2.63;1.23;;;8.20;77.20;;;;;;4986430;28;20544;-81
2021/11/04 08:49:54;;;;;;;1.30;0.90;;;8.20;77.20;;;;;;5006604;28;20053;-81
2021/11/04 08:52:23;;;;;;;1.45;1.00;;;8.20;77.20;;;;;;5001951;28;20042;-84
2021/11/04 08:54:50;;;;;;;0.77;0.60;;;8.20;77.10;;;;;;5002082;28;20030;-86
2021/11/04 08:57:16;;;;;;;2.60;1.08;;;8.20;77.10;;;;;;4987040;28;20030;-83
2021/11/04 08:59:43;;;;;;;1.77;0.90;;;8.30;77.30;;;;;;4986654;28;20038;-82
2021/11/04 09:02:11;;;;;;;0.98;0.82;;;8.30;77.30;;;;;;4988733;28;20034;-85
2021/11/04 09:04:42;;;;;;;0.70;0.70;;;8.30;77.30;;;;;;5006756;28;20564;-88
2021/11/04 09:07:13;;;;;;;1.92;1.40;;;8.30;77.20;;;;;;5007360;28;20041;-83
2021/11/04 09:09:39;;;;;;;2.85;1.15;;;8.30;77.30;;;;;;4989188;28;20466;-89
2021/11/04 09:12:06;;;;;;;3.95;1.30;;;8.40;77.60;;;;;;4987510;28;20038;-90
2021/11/04 09:14:32;;;;;;;2.25;1.05;;;8.40;77.80;;;;;;4987873;28;20027;-90
2021/11/04 09:16:58;;;;;;;1.52;1.00;;;8.50;78.20;;;;;;4987343;28;20041;-84
2021/11/04 09:19:24;;;;;;;1.40;0.77;;;8.60;78.40;;;;;;4987096;28;20484;-80
2021/11/04 09:21:50;;;;;;;1.13;0.95;;;8.60;78.50;;;;;;4986662;28;20022;-80
2021/11/04 09:24:17;;;;;;;1.38;0.68;;;8.70;78.60;;;;;;4986935;28;20026;-85
2021/11/04 09:26:42;;;;;;;1.63;0.95;;;8.70;78.60;;;;;;4980915;28;20117;-82
2021/11/04 09:29:08;;;;;;;1.13;0.95;;;8.70;78.60;;;;;;4987630;28;20166;-89
2021/11/04 09:31:34;;;;;;;1.00;0.82;;;8.80;78.70;;;;;;4986394;28;20033;-84
2021/11/04 09:34:01;;;;;;;1.35;0.70;;;8.80;78.70;;;;;;4987029;28;20205;-91
2021/11/04 09:36:29;;;;;;;1.70;0.88;;;8.80;78.70;;;;;;4987711;28;20026;-83
2021/11/04 09:38:59;;;;;;;1.13;0.68;;;8.80;79.20;;;;;;4985523;28;20045;-82
2021/11/04 09:41:26;;;;;;;1.40;0.80;;;8.80;78.70;;;;;;4986819;28;20377;-83
2021/11/04 09:43:54;;;;;;;2.95;0.73;;;8.80;78.70;;;;;;4985946;28;20048;-82
2021/11/04 09:46:20;;;;;;;3.45;1.08;;;8.80;78.70;;;;;;4986283;28;20066;-83
2021/11/04 09:48:46;;;;;;;1.77;0.65;;;8.80;78.70;;;;;;4986590;28;20058;-81
2021/11/04 09:51:12;;;;;;;0.73;0.55;;;8.80;78.60;;;;;;4985263;28;20033;-81
2021/11/04 09:53:38;;;;;;;1.30;0.80;;;8.90;78.80;;;;;;4986121;28;20073;-85
2021/11/04 09:56:04;;;;;;;1.60;0.73;;;8.90;78.80;;;;;;4986226;28;20030;-82
2021/11/04 09:58:34;;;;;;;1.48;0.70;;;8.90;78.70;;;;;;4985893;28;20058;-83
2021/11/04 10:01:25;;;;;;;0.93;0.63;;;8.90;78.70;;;;;;4986013;28;20026;-81
2021/11/04 10:03:59;;;;;;;1.48;0.77;;;9.00;78.80;;;;;;4987715;28;20039;-86
2021/11/04 10:06:27;;;;;;;0.80;0.65;;;9.00;78.70;;;;;;4988981;28;20026;-82
2021/11/04 10:08:58;;;;;;;1.23;1.10;;;9.00;78.70;;;;;;5000864;28;20026;-80
2021/11/04 10:11:28;;;;;;;1.30;0.70;;;9.00;78.60;;;;;;5008855;28;20044;-81
2021/11/04 10:14:01;;;;;;;1.35;0.60;;;9.00;78.50;;;;;;4991935;28;20038;-81
2021/11/04 10:16:30;;;;;;;1.42;0.52;;;9.00;78.50;;;;;;5004351;28;20097;-82
2021/11/04 10:18:57;;;;;;;0.45;0.40;;;9.00;78.40;;;;;;5002931;28;20045;-80
2021/11/04 10:21:28;;;;;;;1.20;0.50;;;9.10;78.50;;;;;;5008131;28;20461;-86
2021/11/04 10:23:55;;;;;;;0.82;0.50;;;9.10;78.50;;;;;;4993912;28;20044;-81
2021/11/04 10:26:29;;;;;;;0.98;0.77;;;9.10;78.50;;;;;;4989735;28;20076;-83
2021/11/04 10:29:03;;;;;;;1.05;0.55;;;9.10;78.40;;;;;;4989328;28;20026;-88
2021/11/04 10:31:41;;;;;;;0.60;0.40;;;9.20;78.50;;;;;;4969552;28;20031;-83
2021/11/04 10:34:14;;;;;;;2.70;0.82;;;9.20;78.50;;;;;;4987332;28;20070;-86
2021/11/04 10:36:44;;;;;;;0.52;0.40;;;9.20;78.50;;;;;;4989894;28;20031;-83
2021/11/04 10:39:11;;;;;;;1.38;0.65;;;9.20;78.40;;;;;;5004111;28;20033;-83
2021/11/04 10:41:40;;;;;;;1.40;0.40;;;9.20;78.40;;;;;;5024721;28;20473;-87
2021/11/04 10:44:15;;;;;;;1.02;0.50;;;9.30;78.60;;;;;;5005650;28;20494;-84
2021/11/04 10:46:44;;;;;;;0.30;0.30;;;9.30;78.60;;;;;;4978171;28;20035;-85
2021/11/04 10:49:10;;;;;;;0.30;0.30;;;9.40;78.70;;;;;;4998708;28;20498;-88
2021/11/04 10:51:37;;;;;;;1.48;0.73;;;9.40;78.70;;;;;;5008005;28;20034;-82
2021/11/04 10:54:16;;;;;;;1.15;0.80;;;9.50;78.70;;;;;;5007781;28;20533;-88
2021/11/04 10:56:45;;;;;;;0.77;0.60;;;9.60;78.80;;;;;;5008767;28;20940;-89
2021/11/04 10:59:13;;;;;;;0.65;0.50;;;9.70;78.90;;;;;;4994104;28;20050;-87
2021/11/04 11:01:42;;;;;;;1.92;0.40;;;9.80;79.00;;;;;;4989101;28;20042;-85
2021/11/04 11:04:12;;;;;;;0.52;0.50;;;9.90;79.00;;;;;;4988702;28;20026;-85
2021/11/04 11:06:49;;;;;;;0.98;0.80;;;10.10;79.20;;;;;;4989265;28;20129;-85
2021/11/04 11:09:20;;;;;;;1.20;1.10;;;10.10;78.90;;;;;;4989522;28;20113;-82
2021/11/04 11:11:50;;;;;;;1.13;0.82;;;10.30;79.10;;;;;;4988069;28;20053;-88
2021/11/04 11:14:17;;;;;;;1.85;1.58;;;10.30;78.90;;;;;;5007160;28;20041;-85
2021/11/04 11:16:45;;;;;;;1.75;1.45;;;10.30;78.70;;;;;;4998014;28;20026;-85
2021/11/04 11:19:11;;;;;;;2.08;1.50;;;10.30;78.70;;;;;;4977655;28;20034;-86
2021/11/04 11:21:50;;;;;;;1.70;1.38;;;10.40;78.80;;;;;;4969554;28;20030;-84
2021/11/04 11:24:17;;;;;;;1.80;1.40;;;10.40;78.70;;;;;;4987292;28;20058;-85
2021/11/04 11:26:45;;;;;;;2.17;1.45;;;10.40;78.60;;;;;;4989246;28;20034;-90
2021/11/04 11:29:12;;;;;;;2.15;1.50;;;10.40;78.60;;;;;;4989771;28;20073;-83
2021/11/04 11:31:49;;;;;;;1.30;1.20;;;10.40;78.50;;;;;;4988776;28;20030;-86
2021/11/04 11:34:16;;;;;;;1.50;1.40;;;10.40;79.00;;;;;;4989052;28;20046;-85
2021/11/04 11:37:06;;;;;;;1.75;1.65;;;10.40;78.40;;;;;;4988948;28;20061;-80
2021/11/04 11:39:41;;;;;;;2.17;1.17;;;10.50;78.50;;;;;;4989035;28;20112;-83
2021/11/04 11:42:09;;;;;;;1.70;1.60;;;10.50;78.50;;;;;;4988439;28;20130;-83
2021/11/04 11:44:40;;;;;;;1.55;1.45;;;10.50;78.40;;;;;;5000287;28;20030;-85
2021/11/04 11:47:12;;;;;;;2.00;1.48;;;10.50;78.30;;;;;;4987433;28;20040;-81
2021/11/04 11:49:39;;;;;;;2.25;1.30;;;10.60;78.50;;;;;;5006213;28;20053;-83
2021/11/04 11:52:46;;;;;;;2.22;2.00;;;10.60;78.40;;;;;;5007962;28;20042;-83
2021/11/04 11:55:15;;;;;;;3.28;1.92;;;10.60;78.40;;;;;;4968661;28;20030;-83
2021/11/04 11:58:10;;;;;;;2.40;1.73;;;10.60;78.50;;;;;;4972464;28;20502;-87
2021/11/04 12:00:58;;;;;;;1.90;1.70;;;10.80;78.90;;;;;;5007407;28;20423;-87
2021/11/04 12:03:36;;;;;;;3.83;1.88;;;10.80;78.80;;;;;;5012785;28;20080;-84
2021/11/04 12:06:24;;;;;;;1.90;1.58;;;10.90;78.80;;;;;;4987060;28;20398;-83
2021/11/04 12:08:56;;;;;;;3.45;1.63;;;10.90;78.70;;;;;;4993066;28;20049;-82
2021/11/04 12:11:48;;;;;;;2.27;1.20;;;10.90;78.50;;;;;;5007342;28;20096;-88
2021/11/04 12:14:20;;;;;;;1.63;1.10;;;10.90;78.50;;;;;;4989328;28;20290;-83
2021/11/04 12:17:08;;;;;;;1.40;1.23;;;10.90;78.40;;;;;;4987977;28;20038;-88
2021/11/04 12:19:48;;;;;;;1.80;1.55;;;11.00;78.50;;;;;;4988406;28;20455;-84
2021/11/04 12:22:17;;;;;;;2.53;1.33;;;11.00;78.40;;;;;;4988759;28;20045;-86
2021/11/04 12:25:16;;;;;;;1.42;1.33;;;11.00;78.30;;;;;;5007780;28;20034;-83
2021/11/04 12:27:45;;;;;;;1.38;1.10;;;11.00;78.20;;;;;;4995308;28;20030;-86
2021/11/04 12:30:19;;;;;;;1.80;0.95;;;11.10;78.30;;;;;;4989190;28;20031;-87
2021/11/04 12:32:59;;;;;;;2.00;1.20;;;11.10;78.20;;;;;;4991636;28;20058;-83
2021/11/04 12:35:38;;;;;;;1.63;1.38;;;11.10;78.10;;;;;;5006742;28;20026;-85
2021/11/04 12:38:04;;;;;;;2.30;0.85;;;11.20;78.20;;;;;;5002680;28;20467;-81
2021/11/04 12:40:30;;;;;;;1.38;1.05;;;11.20;78.10;;;;;;4993206;28;20138;-81
2021/11/04 12:42:56;;;;;;;3.47;1.10;;;11.20;77.90;;;;;;4996526;28;20030;-80
2021/11/04 12:45:26;;;;;;;1.13;0.98;;;11.20;77.80;;;;;;4986643;28;20135;-82
2021/11/04 12:48:02;;;;;;;1.45;0.98;;;11.30;77.90;;;;;;4990884;28;20519;-83
2021/11/04 12:50:30;;;;;;;1.23;1.13;;;11.30;77.80;;;;;;5006532;28;20068;-80
2021/11/04 12:53:22;;;;;;;1.20;0.90;;;11.30;77.70;;;;;;4999599;28;20042;-81
2021/11/04 12:55:51;;;;;;;1.30;0.80;;;11.30;77.50;;;;;;4985225;28;20049;-81
2021/11/04 12:58:17;;;;;;;0.93;0.88;;;11.40;77.50;;;;;;5008999;28;20409;-81
2021/11/04 13:00:43;;;;;;;1.63;0.80;;;11.40;77.40;;;;;;5006104;28;20029;-81
2021/11/04 13:03:09;;;;;;;1.50;0.70;;;11.40;77.80;;;;;;4998509;28;20533;-80